Time;durP1;ratioP1;P1;durP2;ratioP2;P2;SDS_P1;SDS_P2;PMS_P1;PMS_P2;Temp;Humidity;BMP_temperature;BMP_pressure;BME280_temperature;BME280_humidity;BME280_pressure;Samples;Min_cycle;Max_cycle;Signal;HPM_P1;HPM_P2
2023/07/07 00:00:30;;;;;;;2.53;1.90;;;;;;;16.66;49.21;99170.78;5133587;27;39522;-77
2023/07/07 00:02:57;;;;;;;2.97;1.83;;;;;;;16.61;49.17;99178.28;5115824;27;42617;-77
2023/07/07 00:05:25;;;;;;;2.30;1.80;;;;;;;16.57;49.26;99182.19;5133597;27;42974;-77
2023/07/07 00:07:53;;;;;;;3.20;2.10;;;;;;;16.53;49.31;99180.75;5115535;27;41655;-77
2023/07/07 00:10:21;;;;;;;5.30;2.23;;;;;;;16.38;49.84;99160.63;5116306;27;40950;-77
2023/07/07 00:12:51;;;;;;;1.70;1.60;;;;;;;16.45;49.97;99180.50;5119423;27;41771;-77
2023/07/07 00:15:19;;;;;;;3.47;1.80;;;;;;;16.38;49.75;99182.00;5136623;27;41672;-77
2023/07/07 00:17:50;;;;;;;1.93;1.60;;;;;;;16.36;49.68;99187.47;5136311;27;41143;-77
2023/07/07 00:20:18;;;;;;;1.97;1.87;;;;;;;16.32;50.22;99188.69;5136694;27;40219;-77
2023/07/07 00:22:47;;;;;;;2.03;1.70;;;;;;;16.26;50.20;99188.34;5136653;27;41127;-77
2023/07/07 00:25:15;;;;;;;2.23;1.70;;;;;;;16.23;50.17;99188.56;5119385;27;42060;-77
2023/07/07 00:27:42;;;;;;;2.50;2.07;;;;;;;16.22;49.98;99206.44;5119027;27;42429;-77
2023/07/07 00:30:13;;;;;;;2.27;2.00;;;;;;;16.08;50.55;99179.97;5119330;27;39873;-77
2023/07/07 00:32:40;;;;;;;2.20;2.00;;;;;;;16.16;50.41;99196.25;5119329;27;42135;-78
2023/07/07 00:35:09;;;;;;;2.30;1.90;;;;;;;16.13;50.75;99204.50;5119048;27;41547;-77
2023/07/07 00:37:37;;;;;;;1.80;1.70;;;;;;;16.09;50.70;99203.88;5136255;27;42365;-78
2023/07/07 00:40:06;;;;;;;2.30;1.87;;;;;;;16.06;50.82;99197.97;5119386;27;41351;-78
2023/07/07 00:42:33;;;;;;;3.00;1.70;;;;;;;16.02;51.14;99202.69;5136402;27;41805;-78
2023/07/07 00:45:13;;;;;;;1.90;1.73;;;;;;;15.97;51.49;99193.31;5136601;27;42899;-78
2023/07/07 00:47:45;;;;;;;2.23;1.87;;;;;;;15.82;51.22;99185.53;5118776;27;44113;-78
2023/07/07 00:50:15;;;;;;;1.90;1.63;;;;;;;15.85;51.51;99189.81;5133363;27;41089;-78
2023/07/07 00:52:45;;;;;;;2.73;1.80;;;;;;;15.78;51.89;99204.63;5135765;27;41777;-78
2023/07/07 00:55:17;;;;;;;1.83;1.57;;;;;;;15.73;51.83;99201.44;5136092;27;42812;-77
2023/07/07 00:57:45;;;;;;;3.13;2.37;;;;;;;15.69;51.70;99200.84;5133100;27;43092;-77
2023/07/07 01:00:15;;;;;;;3.53;2.30;;;;;;;15.64;51.80;99196.84;5136144;27;40192;-77
2023/07/07 01:02:53;;;;;;;2.93;1.97;;;;;;;15.60;52.26;99195.34;5135808;27;41894;-76
2023/07/07 01:05:23;;;;;;;1.60;1.50;;;;;;;15.56;52.19;99196.59;5119136;27;41949;-77
2023/07/07 01:07:52;;;;;;;2.83;2.10;;;;;;;15.40;52.44;99183.53;5118543;27;41116;-77
2023/07/07 01:10:21;;;;;;;2.10;1.90;;;;;;;15.46;52.77;99199.06;5118554;27;42658;-77
2023/07/07 01:12:51;;;;;;;2.30;1.80;;;;;;;15.41;52.66;99191.44;5118639;27;43225;-77
2023/07/07 01:15:23;;;;;;;2.57;1.70;;;;;;;15.39;53.09;99204.03;5135574;27;42561;-78
2023/07/07 01:18:05;;;;;;;2.50;2.10;;;;;;;15.33;53.32;99199.16;5118879;27;42298;-77
2023/07/07 01:20:38;;;;;;;2.87;2.07;;;;;;;15.29;53.45;99202.19;5118871;27;39875;-77
2023/07/07 01:23:43;;;;;;;2.07;1.80;;;;;;;15.22;53.68;99199.13;5132823;27;41665;-76
2023/07/07 01:26:22;;;;;;;2.47;2.13;;;;;;;15.18;53.40;99200.34;5105839;27;42481;-76
2023/07/07 01:29:06;;;;;;;1.87;1.77;;;;;;;15.13;53.76;99199.81;5118145;27;42759;-77
2023/07/07 01:31:40;;;;;;;2.20;1.90;;;;;;;15.09;53.53;99193.00;5118704;27;40995;-77
2023/07/07 01:34:10;;;;;;;1.90;1.80;;;;;;;15.04;53.62;99187.19;5134739;27;42509;-78
2023/07/07 01:36:37;;;;;;;2.67;2.07;;;;;;;15.00;53.62;99194.56;5117955;27;44300;-77
2023/07/07 01:39:06;;;;;;;1.50;1.40;;;;;;;14.93;53.57;99189.81;5135379;27;43211;-77
2023/07/07 01:41:39;;;;;;;3.23;1.73;;;;;;;14.93;53.80;99195.16;5135513;27;40070;-77
2023/07/07 01:44:15;;;;;;;2.07;1.87;;;;;;;14.89;54.33;99196.34;5117894;27;41658;-77
2023/07/07 01:46:50;;;;;;;2.27;1.77;;;;;;;14.85;54.35;99194.84;5118110;27;41885;-77
2023/07/07 01:49:22;;;;;;;1.63;1.50;;;;;;;14.79;53.93;99192.66;5134854;27;42942;-77
2023/07/07 01:51:55;;;;;;;2.00;1.80;;;;;;;14.78;54.93;99191.81;5118470;27;40961;-77
2023/07/07 01:54:25;;;;;;;2.03;1.83;;;;;;;14.72;55.14;99182.44;5134899;27;42670;-77
2023/07/07 01:56:56;;;;;;;2.03;1.77;;;;;;;14.73;55.32;99194.81;5135225;27;43026;-77
2023/07/07 01:59:25;;;;;;;2.00;1.80;;;;;;;14.68;55.13;99190.78;5117754;27;41342;-77
2023/07/07 02:01:56;;;;;;;2.20;2.00;;;;;;;14.68;54.88;99201.47;5117933;27;40415;-77
2023/07/07 02:04:24;;;;;;;1.97;1.77;;;;;;;14.67;55.01;99205.94;5117677;27;41453;-77
2023/07/07 02:06:51;;;;;;;1.77;1.50;;;;;;;14.58;55.11;99190.63;5117693;27;41835;-77
2023/07/07 02:09:21;;;;;;;2.10;1.90;;;;;;;14.64;55.06;99205.31;5153502;27;43224;-77
2023/07/07 02:11:48;;;;;;;2.10;1.83;;;;;;;14.59;55.03;99208.28;5117677;27;41602;-76
2023/07/07 02:14:16;;;;;;;2.17;1.60;;;;;;;14.59;55.04;99210.97;5134793;27;41703;-77
2023/07/07 02:16:44;;;;;;;2.63;1.90;;;;;;;14.57;55.63;99204.91;5117398;27;42875;-76
2023/07/07 02:19:13;;;;;;;1.67;1.53;;;;;;;14.54;55.49;99199.81;5153036;27;42235;-77
2023/07/07 02:21:41;;;;;;;2.17;1.80;;;;;;;14.53;55.36;99214.09;5134618;27;40983;-78
2023/07/07 02:24:09;;;;;;;1.83;1.67;;;;;;;14.44;55.23;99198.78;5117354;27;40519;-76
2023/07/07 02:26:38;;;;;;;2.40;1.90;;;;;;;14.48;55.41;99210.91;5134593;27;42995;-76
2023/07/07 02:29:06;;;;;;;2.67;2.00;;;;;;;14.44;55.44;99212.09;5134494;27;43219;-77
2023/07/07 02:31:34;;;;;;;2.77;1.80;;;;;;;14.41;55.59;99209.66;5134621;27;40908;-77
2023/07/07 02:34:01;;;;;;;2.80;1.97;;;;;;;14.38;55.85;99209.84;5116617;27;42198;-76
2023/07/07 02:36:32;;;;;;;1.97;1.77;;;;;;;14.35;56.24;99213.56;5133403;27;41531;-76
2023/07/07 02:39:00;;;;;;;2.17;1.70;;;;;;;14.23;56.17;99205.59;5134387;27;42264;-76
2023/07/07 02:41:28;;;;;;;2.03;1.77;;;;;;;14.29;55.99;99213.16;5117431;27;41240;-76
2023/07/07 02:43:56;;;;;;;2.27;2.07;;;;;;;14.25;56.17;99211.69;5134335;27;41713;-76
2023/07/07 02:46:24;;;;;;;2.30;1.67;;;;;;;14.21;56.42;99215.53;5117310;27;44302;-76
2023/07/07 02:48:52;;;;;;;2.53;1.73;;;;;;;14.17;56.61;99214.91;5117121;27;40889;-76
2023/07/07 02:51:20;;;;;;;2.27;2.07;;;;;;;14.13;56.69;99208.09;5117029;27;41112;-77
2023/07/07 02:53:49;;;;;;;2.67;1.70;;;;;;;13.94;56.78;99194.38;5134098;27;41608;-76
2023/07/07 02:56:17;;;;;;;2.47;1.83;;;;;;;14.05;57.03;99217.59;5116793;27;43132;-76
2023/07/07 02:58:44;;;;;;;2.00;1.67;;;;;;;14.00;57.15;99218.75;5116618;27;41623;-76
2023/07/07 03:01:14;;;;;;;2.57;1.90;;;;;;;13.96;57.29;99217.28;5116750;27;40820;-76
2023/07/07 03:03:45;;;;;;;2.40;2.20;;;;;;;13.88;57.35;99206.31;5116576;27;40743;-76
2023/07/07 03:06:16;;;;;;;2.13;1.93;;;;;;;13.91;57.38;99218.56;5117124;27;42736;-76
2023/07/07 03:08:45;;;;;;;1.90;1.80;;;;;;;13.88;57.54;99216.09;5116620;27;42236;-77
2023/07/07 03:11:18;;;;;;;2.13;1.83;;;;;;;13.84;57.95;99210.16;5134200;27;40946;-77
2023/07/07 03:13:46;;;;;;;2.03;1.70;;;;;;;13.81;57.64;99215.69;5116549;27;42031;-77
2023/07/07 03:16:20;;;;;;;1.97;1.70;;;;;;;13.78;57.68;99218.56;5116588;27;41765;-77
2023/07/07 03:18:53;;;;;;;2.27;2.00;;;;;;;13.76;57.89;99223.13;5132380;27;43310;-78
2023/07/07 03:21:23;;;;;;;2.33;1.83;;;;;;;13.73;57.74;99223.34;5116579;27;40951;-77
2023/07/07 03:23:57;;;;;;;1.60;1.50;;;;;;;13.72;58.06;99227.00;5116991;27;41979;-77
2023/07/07 03:26:28;;;;;;;2.10;1.90;;;;;;;13.71;58.16;99227.94;5116569;27;41676;-77
2023/07/07 03:28:57;;;;;;;2.13;1.63;;;;;;;13.69;58.17;99232.53;5132591;27;42399;-77
2023/07/07 03:31:28;;;;;;;2.43;1.90;;;;;;;13.67;58.29;99231.78;5133848;27;41829;-77
2023/07/07 03:34:01;;;;;;;2.13;1.70;;;;;;;13.65;58.23;99231.03;5116338;27;41071;-77
2023/07/07 03:36:35;;;;;;;1.93;1.77;;;;;;;13.64;57.92;99229.31;5133254;27;43450;-77
2023/07/07 03:39:06;;;;;;;2.23;1.87;;;;;;;13.63;57.98;99238.25;5132594;27;42634;-77
2023/07/07 03:41:36;;;;;;;2.53;1.90;;;;;;;13.62;58.28;99240.06;5116553;27;39650;-77
2023/07/07 03:44:07;;;;;;;2.03;1.63;;;;;;;13.63;57.96;99243.56;5116006;27;41813;-77
2023/07/07 03:46:37;;;;;;;2.90;1.80;;;;;;;13.63;58.02;99239.09;5135790;27;43493;-77
2023/07/07 03:49:04;;;;;;;1.83;1.70;;;;;;;13.64;58.56;99245.28;5119765;27;42350;-77
2023/07/07 03:51:37;;;;;;;3.33;2.00;;;;;;;13.60;58.31;99236.66;5119780;27;42785;-77
2023/07/07 03:54:08;;;;;;;2.67;1.67;;;;;;;13.69;58.23;99252.97;5136303;27;42255;-77
2023/07/07 03:56:39;;;;;;;1.83;1.73;;;;;;;13.74;58.07;99256.13;5119523;27;42752;-77
2023/07/07 03:59:06;;;;;;;1.83;1.73;;;;;;;13.77;58.01;99251.47;5119539;27;41394;-77
2023/07/07 04:01:34;;;;;;;2.80;1.73;;;;;;;13.82;58.13;99253.81;5119793;27;40925;-77
2023/07/07 04:04:01;;;;;;;1.73;1.60;;;;;;;13.88;58.02;99256.91;5119513;27;41875;-77
2023/07/07 04:06:29;;;;;;;2.33;1.73;;;;;;;13.92;58.15;99258.41;5119405;27;42915;-76
2023/07/07 04:08:57;;;;;;;1.70;1.30;;;;;;;13.98;58.15;99270.41;5119444;27;42283;-77
2023/07/07 04:11:26;;;;;;;3.33;1.80;;;;;;;14.04;58.21;99270.00;5136834;27;41064;-77
2023/07/07 04:13:55;;;;;;;1.67;1.57;;;;;;;14.09;59.08;99267.03;5119419;27;40730;-77
2023/07/07 04:16:25;;;;;;;2.27;2.03;;;;;;;14.14;59.33;99270.19;5119302;27;42738;-77
2023/07/07 04:18:54;;;;;;;2.70;2.00;;;;;;;14.19;59.52;99260.09;5136412;27;42452;-77
2023/07/07 04:21:24;;;;;;;2.20;2.00;;;;;;;14.26;59.36;99266.66;5119423;27;40113;-77
2023/07/07 04:23:54;;;;;;;2.07;1.60;;;;;;;14.32;59.02;99267.09;5118952;27;40635;-77
2023/07/07 04:26:23;;;;;;;2.20;2.00;;;;;;;14.40;58.91;99271.91;5119515;27;42793;-77
2023/07/07 04:28:52;;;;;;;2.40;2.20;;;;;;;14.48;58.99;99274.84;5136259;27;42615;-77
2023/07/07 04:31:24;;;;;;;2.37;1.90;;;;;;;14.56;58.62;99272.50;5119273;27;40997;-77
2023/07/07 04:33:52;;;;;;;2.40;2.20;;;;;;;14.65;58.76;99270.97;5118803;27;40576;-77
2023/07/07 04:36:20;;;;;;;2.10;1.90;;;;;;;14.72;58.71;99280.22;5118613;27;41626;-77
2023/07/07 04:38:49;;;;;;;2.13;1.93;;;;;;;14.82;59.20;99275.94;5136219;27;42058;-77
2023/07/07 04:41:19;;;;;;;2.73;2.07;;;;;;;14.89;59.10;99274.53;5119125;27;40067;-77
2023/07/07 04:43:49;;;;;;;2.47;2.10;;;;;;;14.99;59.03;99282.69;5135900;27;41825;-77
2023/07/07 04:46:27;;;;;;;2.40;1.70;;;;;;;15.09;58.84;99286.38;5136554;27;42349;-77
2023/07/07 04:48:56;;;;;;;2.97;2.20;;;;;;;15.18;58.63;99285.72;5118527;27;41474;-77
2023/07/07 04:51:24;;;;;;;2.53;2.17;;;;;;;15.31;58.31;99291.84;5118891;27;41153;-77
2023/07/07 04:53:52;;;;;;;3.03;2.20;;;;;;;15.41;58.37;99284.84;5118634;27;41809;-77
2023/07/07 04:56:22;;;;;;;2.33;1.93;;;;;;;15.51;58.83;99276.13;5118878;27;41979;-77
2023/07/07 04:58:51;;;;;;;2.10;2.00;;;;;;;15.60;58.68;99276.31;5135197;27;42621;-77
2023/07/07 05:01:21;;;;;;;3.40;2.17;;;;;;;15.70;59.56;99276.47;5120036;27;41283;-77
2023/07/07 05:03:51;;;;;;;2.83;2.00;;;;;;;15.73;59.18;99277.06;5135809;27;42010;-77
2023/07/07 05:06:21;;;;;;;2.47;2.20;;;;;;;15.89;59.11;99287.44;5119187;27;41917;-77
2023/07/07 05:08:49;;;;;;;3.63;2.10;;;;;;;16.01;58.58;99291.81;5136014;27;42375;-77
2023/07/07 05:11:19;;;;;;;2.60;2.33;;;;;;;16.14;58.16;99291.72;5136283;27;40729;-77
2023/07/07 05:13:48;;;;;;;2.27;2.00;;;;;;;16.23;58.15;99293.66;5118335;27;41046;-77
2023/07/07 05:16:18;;;;;;;2.57;1.83;;;;;;;16.38;58.77;99288.91;5154418;27;43733;-76
2023/07/07 05:18:46;;;;;;;2.30;2.10;;;;;;;16.49;58.49;99286.25;5118492;27;42146;-77
2023/07/07 05:21:16;;;;;;;3.70;3.00;;;;;;;16.62;58.72;99291.47;5135889;27;41396;-77
2023/07/07 05:23:45;;;;;;;2.70;2.37;;;;;;;16.73;58.06;99296.81;5135594;27;41911;-77
2023/07/07 05:26:13;;;;;;;2.90;2.50;;;;;;;16.84;58.35;99286.09;5135489;27;43330;-76
2023/07/07 05:28:41;;;;;;;2.60;2.40;;;;;;;16.96;57.94;99300.31;5135195;27;42137;-76
2023/07/07 05:31:09;;;;;;;2.53;2.33;;;;;;;17.07;57.82;99292.25;5154147;27;40686;-76
2023/07/07 05:33:38;;;;;;;2.67;2.33;;;;;;;17.19;57.03;99297.44;5153772;27;41844;-77
2023/07/07 05:36:08;;;;;;;4.20;2.17;;;;;;;17.24;56.28;99289.03;5153429;27;43593;-76
2023/07/07 05:38:37;;;;;;;3.87;2.43;;;;;;;17.38;55.98;99293.25;5153577;27;42544;-76
2023/07/07 05:41:06;;;;;;;2.50;2.00;;;;;;;17.60;55.81;99312.72;5135345;27;40840;-76
2023/07/07 05:43:35;;;;;;;3.00;2.33;;;;;;;17.71;55.43;99308.31;5135345;27;41452;-76
2023/07/07 05:46:04;;;;;;;2.90;2.57;;;;;;;17.86;54.96;99315.91;5135221;27;43722;-76
2023/07/07 05:48:32;;;;;;;2.70;2.43;;;;;;;17.99;54.52;99321.09;5153510;27;42292;-76
2023/07/07 05:51:02;;;;;;;4.20;2.30;;;;;;;18.12;54.41;99318.19;5153716;27;41899;-77
2023/07/07 05:53:30;;;;;;;3.47;2.53;;;;;;;18.17;54.31;99314.16;5135052;27;41543;-81
2023/07/07 05:56:06;;;;;;;2.40;2.20;;;;;;;18.22;54.22;99300.34;5082172;27;44146;-76
2023/07/07 05:58:36;;;;;;;3.20;2.13;;;;;;;18.44;54.10;99312.72;5114079;27;41196;-77
2023/07/07 06:01:05;;;;;;;3.10;2.23;;;;;;;18.59;53.70;99314.09;5133822;27;40982;-78
2023/07/07 06:03:33;;;;;;;3.60;2.40;;;;;;;18.87;53.74;99340.19;5117641;27;42067;-81
2023/07/07 06:06:00;;;;;;;3.73;2.20;;;;;;;19.03;52.99;99347.72;5132445;27;43205;-81
2023/07/07 06:08:28;;;;;;;2.80;2.50;;;;;;;19.21;52.99;99350.56;5134388;27;42002;-77
2023/07/07 06:10:56;;;;;;;3.57;2.60;;;;;;;19.41;52.64;99346.09;5134672;27;41053;-78
2023/07/07 06:13:24;;;;;;;3.77;2.50;;;;;;;19.58;52.42;99343.56;5134691;27;40767;-77
2023/07/07 06:15:53;;;;;;;2.50;1.90;;;;;;;19.76;52.10;99345.56;5116940;27;42390;-78
2023/07/07 06:18:22;;;;;;;2.47;2.10;;;;;;;19.91;51.67;99338.75;5134550;27;43231;-82
2023/07/07 06:20:50;;;;;;;3.27;2.40;;;;;;;20.10;51.05;99346.81;5134410;27;40968;-79
2023/07/07 06:23:18;;;;;;;3.43;2.50;;;;;;;20.29;50.96;99349.44;5117610;27;41189;-81
2023/07/07 06:25:47;;;;;;;4.17;2.27;;;;;;;20.39;50.45;99328.81;5152505;27;43010;-76
2023/07/07 06:28:16;;;;;;;3.33;2.20;;;;;;;20.67;50.11;99344.97;5134732;27;41511;-84
2023/07/07 06:30:44;;;;;;;2.47;2.10;;;;;;;20.63;50.16;99309.44;5117005;27;41490;-79
2023/07/07 06:33:13;;;;;;;2.30;2.00;;;;;;;21.13;49.82;99358.38;5134773;27;42118;-83
2023/07/07 06:35:43;;;;;;;2.40;1.87;;;;;;;21.42;49.03;99360.03;5133783;27;42277;-80
2023/07/07 06:38:10;;;;;;;4.63;2.03;;;;;;;21.60;47.99;99368.16;5152709;27;43229;-80
2023/07/07 06:40:38;;;;;;;2.30;2.10;;;;;;;21.66;47.60;99346.81;5152503;27;40819;-78
2023/07/07 06:43:06;;;;;;;3.43;2.33;;;;;;;22.01;47.30;99363.97;5134376;27;41770;-79
2023/07/07 06:45:34;;;;;;;4.60;2.30;;;;;;;22.34;46.27;99368.63;5116990;27;41687;-79
2023/07/07 06:48:02;;;;;;;5.80;2.40;;;;;;;22.73;45.68;99373.59;5152276;27;42074;-80
2023/07/07 06:50:33;;;;;;;2.17;1.80;;;;;;;22.99;45.24;99374.44;5134066;27;41614;-78
2023/07/07 06:53:00;;;;;;;2.73;1.80;;;;;;;23.11;44.51;99383.97;5133938;27;41858;-78
2023/07/07 06:55:28;;;;;;;4.90;2.67;;;;;;;23.22;44.10;99383.66;5116286;27;42656;-80
2023/07/07 06:57:55;;;;;;;3.10;2.07;;;;;;;23.35;44.22;99382.34;5133594;27;42650;-79
2023/07/07 07:00:24;;;;;;;2.20;2.00;;;;;;;23.46;44.10;99376.63;5116572;27;40164;-77
2023/07/07 07:02:51;;;;;;;2.87;2.33;;;;;;;23.55;42.87;99387.31;5116177;27;42115;-77
2023/07/07 07:05:19;;;;;;;3.60;2.33;;;;;;;23.66;43.27;99378.03;5151924;27;42798;-81
2023/07/07 07:07:49;;;;;;;2.53;2.10;;;;;;;23.81;43.77;99380.94;5133624;27;42352;-81
2023/07/07 07:10:16;;;;;;;2.43;2.07;;;;;;;23.96;42.98;99385.53;5133525;27;40905;-79
2023/07/07 07:12:44;;;;;;;3.17;2.10;;;;;;;24.00;41.42;99373.34;5116474;27;42023;-82
2023/07/07 07:15:12;;;;;;;3.07;2.20;;;;;;;24.25;41.06;99378.78;5130255;27;43574;-82
2023/07/07 07:17:39;;;;;;;3.97;2.60;;;;;;;24.64;40.89;99396.00;5129940;27;42362;-78
2023/07/07 07:20:08;;;;;;;2.87;2.00;;;;;;;24.71;41.04;99390.75;5130175;27;40648;-79
2023/07/07 07:22:36;;;;;;;2.50;2.27;;;;;;;24.79;41.08;99387.16;5135824;27;40651;-76
2023/07/07 07:25:07;;;;;;;2.97;2.10;;;;;;;24.88;40.87;99386.94;5121911;27;42901;-81
2023/07/07 07:27:37;;;;;;;3.23;2.30;;;;;;;24.90;41.09;99374.09;5122320;27;41753;-80
2023/07/07 07:30:07;;;;;;;2.47;2.17;;;;;;;25.10;40.76;99387.28;5154600;27;41219;-78
2023/07/07 07:32:35;;;;;;;5.83;2.00;;;;;;;25.29;40.03;99393.09;5139189;27;40491;-76
2023/07/07 07:35:02;;;;;;;2.67;2.30;;;;;;;25.57;40.45;99387.19;5121956;27;41890;-77
2023/07/07 07:37:30;;;;;;;3.50;2.30;;;;;;;25.91;39.18;99393.09;5131167;27;45003;-78
2023/07/07 07:39:57;;;;;;;3.40;2.50;;;;;;;26.31;39.44;99385.69;5136346;27;40346;-77
2023/07/07 07:42:27;;;;;;;3.53;2.20;;;;;;;26.50;38.49;99384.31;5136208;27;42967;-77
2023/07/07 07:44:54;;;;;;;3.43;2.47;;;;;;;26.71;37.35;99398.84;5136051;27;42750;-77
2023/07/07 07:47:21;;;;;;;5.27;2.47;;;;;;;26.93;37.57;99396.28;5157185;27;42445;-79
2023/07/07 07:49:49;;;;;;;2.90;2.20;;;;;;;27.46;36.84;99406.81;5158956;27;41125;-80
2023/07/07 07:52:18;;;;;;;4.93;2.63;;;;;;;28.51;34.54;99417.19;5158605;27;41827;-80
2023/07/07 07:54:46;;;;;;;2.67;2.30;;;;;;;29.95;33.13;99419.03;5140373;27;42698;-78
2023/07/07 07:57:16;;;;;;;3.00;2.23;;;;;;;31.33;31.35;99429.13;5158286;27;42587;-78
2023/07/07 07:59:45;;;;;;;2.67;2.33;;;;;;;32.65;29.28;99450.34;5139346;27;40132;-78
2023/07/07 08:02:13;;;;;;;2.60;2.30;;;;;;;33.62;27.48;99433.13;5135901;27;41725;-77
2023/07/07 08:04:40;;;;;;;2.80;2.50;;;;;;;34.76;25.76;99453.25;5136057;27;43588;-78
2023/07/07 08:07:08;;;;;;;3.37;2.27;;;;;;;35.70;25.58;99449.38;5135785;27;42452;-78
2023/07/07 08:09:36;;;;;;;3.20;2.10;;;;;;;36.84;24.01;99465.88;5136988;27;41826;-78
2023/07/07 08:12:04;;;;;;;2.20;2.03;;;;;;;37.82;23.80;99454.03;5138902;27;43849;-75
2023/07/07 08:14:33;;;;;;;4.20;2.70;;;;;;;38.69;21.11;99478.78;5157553;27;42938;-75
2023/07/07 08:17:05;;;;;;;4.90;3.17;;;;;;;39.71;21.02;99471.13;5135402;27;43286;-76
2023/07/07 08:19:36;;;;;;;2.58;2.38;;;;;;;40.56;19.53;99470.56;5137144;27;42073;-85
2023/07/07 08:22:06;;;;;;;3.13;2.30;;;;;;;41.31;19.48;99476.38;5138985;27;40372;-78
2023/07/07 08:24:38;;;;;;;2.33;2.13;;;;;;;41.32;19.07;99489.16;5139080;27;41799;-74
2023/07/07 08:27:07;;;;;;;2.70;2.30;;;;;;;40.98;19.08;99466.69;5154450;27;42610;-77
2023/07/07 08:29:34;;;;;;;2.33;2.13;;;;;;;40.77;19.05;99478.94;5121794;27;39864;-76
2023/07/07 08:32:04;;;;;;;2.45;2.20;;;;;;;40.65;18.61;99462.53;5134775;27;41607;-80
2023/07/07 08:34:32;;;;;;;3.20;2.45;;;;;;;40.28;19.32;99439.72;5132991;27;43216;-82
2023/07/07 08:37:00;;;;;;;3.58;2.47;;;;;;;40.13;19.61;99460.78;5136413;27;42454;-82
2023/07/07 08:39:30;;;;;;;2.78;2.33;;;;;;;39.80;19.32;99473.13;5135950;27;40041;-78
2023/07/07 08:42:01;;;;;;;2.83;2.47;;;;;;;39.52;20.10;99461.63;5135932;27;41563;-79
2023/07/07 08:44:31;;;;;;;3.03;2.15;;;;;;;39.23;21.28;99450.91;5118686;27;41792;-76
2023/07/07 08:47:29;;;;;;;2.40;2.20;;;;;;;38.68;21.36;99434.75;5115031;27;41627;-80
2023/07/07 08:50:02;;;;;;;3.42;2.15;;;;;;;38.27;21.28;99450.13;5129838;27;41906;-81
2023/07/07 08:52:40;;;;;;;2.70;2.50;;;;;;;37.69;20.76;99460.81;5132967;27;42632;-79
2023/07/07 08:55:25;;;;;;;3.05;2.50;;;;;;;37.13;22.15;99439.81;5132672;27;42911;-80
2023/07/07 08:58:00;;;;;;;2.75;2.55;;;;;;;37.01;22.94;99439.06;5152184;27;43189;-86
2023/07/07 09:00:38;;;;;;;3.53;2.50;;;;;;;36.69;22.17;99447.97;5151332;27;41684;-83
2023/07/07 09:03:23;;;;;;;2.57;2.37;;;;;;;36.50;22.18;99443.75;5133782;27;42677;-84
2023/07/07 09:06:03;;;;;;;3.73;2.70;;;;;;;36.45;22.53;99440.91;5132378;27;42823;-76
2023/07/07 09:08:41;;;;;;;3.03;2.80;;;;;;;36.57;21.47;99454.63;5115074;27;42342;-79
2023/07/07 09:11:18;;;;;;;4.63;2.80;;;;;;;36.67;22.01;99443.75;5118247;27;41322;-85
2023/07/07 09:13:48;;;;;;;2.90;2.70;;;;;;;36.48;22.12;99440.41;5135420;27;40894;-82
2023/07/07 09:16:22;;;;;;;3.47;2.87;;;;;;;36.45;21.91;99446.44;5135174;27;42878;-82
2023/07/07 09:18:56;;;;;;;3.73;2.63;;;;;;;36.68;22.38;99435.22;5152961;27;42124;-79
2023/07/07 09:21:30;;;;;;;3.43;2.87;;;;;;;36.83;21.37;99437.44;5118362;27;40403;-82
2023/07/07 09:24:03;;;;;;;3.77;3.30;;;;;;;36.71;22.31;99433.09;5118228;27;41792;-82
2023/07/07 09:26:34;;;;;;;4.43;3.30;;;;;;;36.79;21.64;99443.69;5136525;27;41662;-85
2023/07/07 09:29:12;;;;;;;4.13;3.20;;;;;;;36.66;21.41;99437.41;5152850;27;42279;-83
2023/07/07 09:31:42;;;;;;;4.77;3.27;;;;;;;36.66;22.08;99431.03;5135203;27;40790;-83
2023/07/07 09:34:14;;;;;;;5.82;3.30;;;;;;;37.79;21.19;99434.38;5117982;27;41317;-84
2023/07/07 09:36:49;;;;;;;3.53;3.30;;;;;;;39.06;20.23;99445.56;5131414;27;44123;-81
2023/07/07 09:39:42;;;;;;;3.50;3.20;;;;;;;39.89;18.79;99444.91;5132593;27;42402;-81
2023/07/07 09:42:19;;;;;;;5.63;3.70;;;;;;;39.85;18.61;99462.06;5135524;27;41050;-83
2023/07/07 09:45:01;;;;;;;4.20;3.60;;;;;;;39.92;18.87;99431.31;5134850;27;41613;-83
2023/07/07 09:47:35;;;;;;;4.40;4.00;;;;;;;41.02;18.28;99455.84;5134898;27;42945;-79
2023/07/07 09:50:11;;;;;;;3.63;2.95;;;;;;;41.68;17.75;99453.75;5135461;27;41262;-84
2023/07/07 09:52:46;;;;;;;4.13;3.50;;;;;;;42.33;17.79;99456.47;5151001;27;41952;-79
2023/07/07 09:55:19;;;;;;;3.72;3.17;;;;;;;43.05;16.65;99449.19;5117684;27;41690;-81
2023/07/07 09:57:55;;;;;;;3.53;3.13;;;;;;;44.13;16.69;99451.28;5118098;27;41683;-80
2023/07/07 10:00:26;;;;;;;3.95;3.20;;;;;;;44.59;15.50;99456.16;5134164;27;42565;-80
2023/07/07 10:02:55;;;;;;;4.50;3.15;;;;;;;44.37;15.49;99459.59;5153160;27;41198;-81
2023/07/07 10:05:29;;;;;;;3.60;3.30;;;;;;;43.55;15.95;99448.66;5117057;27;41206;-83
2023/07/07 10:08:00;;;;;;;4.15;3.83;;;;;;;42.57;16.55;99440.72;5132907;27;42645;-77
2023/07/07 10:10:27;;;;;;;3.72;3.35;;;;;;;41.47;17.49;99429.91;5150063;27;42129;-87
2023/07/07 10:12:55;;;;;;;3.95;3.50;;;;;;;40.76;18.44;99419.78;5135187;27;41040;-88
2023/07/07 10:15:41;;;;;;;4.75;4.00;;;;;;;40.13;18.81;99421.91;5117489;27;40788;-84
2023/07/07 10:18:15;;;;;;;4.50;4.10;;;;;;;39.88;18.91;99424.66;5118302;27;41413;-86
2023/07/07 10:20:45;;;;;;;4.00;3.70;;;;;;;39.65;19.11;99398.19;5117280;27;41551;-88
2023/07/07 10:23:13;;;;;;;4.07;3.67;;;;;;;39.60;18.79;99411.19;5135097;27;41097;-85
2023/07/07 10:25:42;;;;;;;4.63;3.70;;;;;;;39.49;18.89;99408.41;5152729;27;41713;-81
2023/07/07 10:28:14;;;;;;;4.10;3.70;;;;;;;39.36;18.80;99408.03;5117354;27;42091;-80
2023/07/07 10:30:43;;;;;;;4.55;4.15;;;;;;;39.14;19.61;99400.72;5150789;27;42361;-79
2023/07/07 10:33:13;;;;;;;4.40;4.00;;;;;;;38.90;19.99;99395.84;5117774;27;39988;-83
2023/07/07 10:35:41;;;;;;;5.00;4.43;;;;;;;38.84;19.60;99397.72;5129757;27;40742;-77
2023/07/07 10:38:12;;;;;;;4.50;4.10;;;;;;;38.79;18.52;99406.84;5113724;27;42045;-78
2023/07/07 10:40:45;;;;;;;6.03;4.05;;;;;;;38.71;18.76;99387.94;5133107;27;42199;-83
2023/07/07 10:43:13;;;;;;;5.78;4.28;;;;;;;38.85;18.73;99384.72;5131798;27;40813;-82
2023/07/07 10:45:44;;;;;;;4.97;4.45;;;;;;;39.06;18.44;99400.41;5133621;27;40717;-77
2023/07/07 10:48:14;;;;;;;4.35;3.95;;;;;;;38.94;19.63;99399.75;5134223;27;42794;-80
2023/07/07 10:50:53;;;;;;;4.97;4.22;;;;;;;38.73;19.19;99390.47;5151806;27;43228;-75
2023/07/07 10:53:47;;;;;;;4.97;4.22;;;;;;;38.47;19.95;99381.09;5134106;27;40260;-77
2023/07/07 10:56:25;;;;;;;4.53;4.03;;;;;;;38.42;19.75;99383.84;5132136;27;40508;-77
2023/07/07 10:59:16;;;;;;;4.85;4.30;;;;;;;38.17;19.83;99387.22;5149625;27;43047;-74
2023/07/07 11:01:59;;;;;;;5.00;4.60;;;;;;;38.06;19.51;99389.03;5129460;27;42962;-80
2023/07/07 11:04:49;;;;;;;5.07;4.57;;;;;;;37.87;19.67;99375.81;5127621;27;41872;-81
2023/07/07 11:07:30;;;;;;;4.63;4.22;;;;;;;37.73;19.61;99369.88;5113167;27;40495;-81
2023/07/07 11:10:11;;;;;;;3.92;3.63;;;;;;;37.69;20.81;99374.25;5133540;27;41741;-80
2023/07/07 11:12:47;;;;;;;4.95;4.47;;;;;;;37.60;19.31;99382.13;5148940;27;42142;-77
2023/07/07 11:15:23;;;;;;;5.13;4.70;;;;;;;37.47;20.20;99370.63;5133300;27;41314;-78
2023/07/07 11:18:06;;;;;;;4.40;4.00;;;;;;;37.32;19.71;99363.84;5130657;27;41796;-79
2023/07/07 11:20:58;;;;;;;5.18;4.20;;;;;;;37.42;19.94;99363.13;5115853;27;41627;-77
2023/07/07 11:23:40;;;;;;;5.35;4.85;;;;;;;37.39;20.00;99358.13;5116821;27;41318;-79
2023/07/07 11:26:19;;;;;;;4.65;4.22;;;;;;;37.33;20.38;99346.19;5133073;27;40091;-80
2023/07/07 11:28:59;;;;;;;6.50;4.57;;;;;;;37.33;20.00;99348.94;5130747;27;42597;-78
2023/07/07 11:31:51;;;;;;;4.60;4.00;;;;;;;37.42;19.96;99334.66;5129211;27;41731;-77
2023/07/07 11:34:34;;;;;;;5.10;3.97;;;;;;;37.71;20.33;99336.13;5130026;27;42622;-77
2023/07/07 11:37:16;;;;;;;4.90;4.50;;;;;;;37.87;18.84;99351.75;5112576;27;39926;-77
2023/07/07 11:40:11;;;;;;;4.78;4.38;;;;;;;37.86;20.62;99338.19;5113556;27;41811;-78
2023/07/07 11:43:06;;;;;;;4.82;4.40;;;;;;;38.07;19.25;99338.16;5128049;27;43927;-78
2023/07/07 11:45:41;;;;;;;5.78;3.80;;;;;;;38.36;20.19;99324.00;5114561;27;43393;-78
2023/07/07 11:48:25;;;;;;;5.35;4.15;;;;;;;38.71;19.41;99315.94;5111054;27;41322;-84
2023/07/07 11:51:12;;;;;;;4.55;4.15;;;;;;;39.20;19.13;99314.81;5129925;27;41915;-84
2023/07/07 11:53:54;;;;;;;5.22;4.45;;;;;;;39.05;18.39;99333.09;5130888;27;41538;-85